Alyeska Resort
Hourly Weather - Mid Mountian Site
ALY_MID_HR 7/28/2015
CLICK TO VIEW GRAPH!!

        DATE  TIME   Air   H2o   H2o   New  Snow  BATT   Rel
                    Temp  Inch Since  Snow Depth  Volt  Hum%
                      F   1HR  0600   1HR         AVG   AVG

   7/28/2015 07:00    50  0.00  0.00  55.1  5.13 13.20    97
   7/28/2015 06:00    50  0.00  0.00  55.6  4.56 13.20    98
   7/28/2015 05:00    50  0.00  0.00  56.7  2.71 13.20    97
   7/28/2015 04:00    50  0.00  0.00  58.4  3.71 13.19    96
   7/28/2015 03:00    50  0.00  0.00  60.5 14.09 13.19    96
   7/28/2015 02:00    51  0.00  0.00  61.8 14.96 13.18    97
   7/28/2015 01:00    51  0.00  0.00  61.9  1.04 13.18    97
   7/27/2015 24:00    51  0.00  0.00  60.1 26.23 13.17    98
   7/27/2015 23:00    52  0.00  0.00  56.1 13.82 13.16    97
   7/27/2015 22:00    53  0.00  0.00  53.5  3.54 13.16    95
   7/27/2015 21:00    55  0.00  0.00  52.5  7.22 13.15    95
   7/27/2015 20:00    54  0.00  0.00  52.3 11.02 13.15    96
   7/27/2015 19:00    54  0.00  0.00  51.5 13.49 13.14    95
   7/27/2015 18:00    57  0.00  0.00  51.7 16.59 13.14    91
   7/27/2015 17:00    57  0.00  0.00  52.3 10.18 13.15    93
   7/27/2015 16:00    56  0.00  0.00  52.9  1.67 13.15    94
   7/27/2015 15:00    56  0.00  0.00  54.3  0.09 13.16    88
   7/27/2015 14:00    56  0.00  0.00  59.7 10.68 13.17    88
   7/27/2015 13:00    54  0.00  0.00  62.3 15.34 13.18    90
   7/27/2015 12:00    53  0.00  0.00  62.2  7.92 13.18    90
   7/27/2015 11:00    53  0.00  0.00  59.3 11.84 13.19    93
   7/27/2015 10:00    51  0.00  0.00  54.7 11.35 13.20    96
   7/27/2015 09:00    50  0.00  0.00  52.4165.90 13.21    98
   7/27/2015 08:00    50  0.00  0.00  51.5 18.87 13.21    98


CLICK TO VIEW GRAPH!!